createdAt,value
2019-03-30T00:03:28.165Z,17.50
2019-03-30T00:07:36.674Z,17.40
2019-03-30T00:11:45.181Z,19.80
2019-03-30T00:15:53.642Z,23.53
2019-03-30T00:20:02.131Z,18.37
2019-03-30T00:24:10.903Z,16.17
2019-03-30T00:28:19.470Z,14.90
2019-03-30T00:32:27.990Z,15.20
2019-03-30T00:36:36.901Z,15.27
2019-03-30T00:40:45.394Z,14.17
2019-03-30T00:44:53.893Z,16.93
2019-03-30T00:49:02.472Z,16.07
2019-03-30T00:53:11.006Z,18.00
2019-03-30T00:57:20.213Z,17.50
2019-03-30T01:01:28.743Z,14.30
2019-03-30T01:05:37.228Z,16.77
2019-03-30T01:09:46.077Z,16.97
2019-03-30T01:13:54.515Z,16.20
2019-03-30T01:18:03.036Z,18.50
2019-03-30T01:22:11.589Z,16.83
2019-03-30T01:26:20.158Z,14.98
2019-03-30T01:30:28.612Z,14.10
2019-03-30T01:34:37.193Z,19.70
2019-03-30T01:38:45.635Z,16.77
2019-03-30T01:42:54.115Z,13.78
2019-03-30T01:47:02.629Z,13.10
2019-03-30T01:51:11.533Z,14.87
2019-03-30T01:55:19.980Z,15.20
2019-03-30T01:59:28.798Z,13.40
2019-03-30T02:03:37.583Z,15.97
2019-03-30T02:07:46.101Z,16.87
2019-03-30T02:11:54.694Z,18.20
2019-03-30T02:16:03.186Z,14.40
2019-03-30T02:20:30.615Z,16.73
2019-03-30T02:24:33.598Z,15.90
2019-03-30T02:28:42.093Z,12.73
2019-03-30T02:32:50.640Z,13.77
2019-03-30T02:36:59.139Z,14.83
2019-03-30T02:41:07.669Z,13.90
2019-03-30T02:45:16.164Z,14.57
2019-03-30T02:49:26.124Z,15.97
2019-03-30T02:53:34.595Z,14.53
2019-03-30T02:57:43.075Z,15.33
2019-03-30T03:01:51.954Z,13.83
2019-03-30T03:06:00.504Z,14.63
2019-03-30T03:10:09.760Z,22.57
2019-03-30T03:14:18.272Z,10.47
2019-03-30T03:18:26.761Z,17.73
2019-03-30T03:22:35.422Z,15.97
2019-03-30T03:26:43.871Z,12.30
2019-03-30T03:30:52.348Z,12.43
2019-03-30T03:35:00.854Z,12.40
2019-03-30T03:39:09.401Z,10.87
2019-03-30T03:43:17.963Z,10.33
2019-03-30T03:47:26.491Z,11.33
2019-03-30T03:51:35.151Z,12.13
2019-03-30T03:55:44.677Z,13.23
2019-03-30T03:59:55.617Z,13.23
2019-03-30T04:04:06.869Z,15.13
2019-03-30T04:08:15.548Z,14.63
2019-03-30T04:12:24.544Z,11.40
2019-03-30T04:16:33.404Z,14.30
2019-03-30T04:20:41.899Z,11.97
2019-03-30T04:24:50.467Z,15.80
2019-03-30T04:28:58.932Z,18.93
2019-03-30T04:33:07.419Z,15.23
2019-03-30T04:37:15.967Z,14.10
2019-03-30T04:41:24.451Z,17.03
2019-03-30T04:45:32.902Z,16.17
2019-03-30T04:49:41.397Z,15.17
2019-03-30T04:53:49.951Z,14.93
2019-03-30T04:57:58.429Z,16.33
2019-03-30T05:02:06.867Z,12.73
2019-03-30T05:06:15.334Z,14.73
2019-03-30T05:10:23.840Z,14.37
2019-03-30T05:14:32.354Z,16.60
2019-03-30T05:18:41.104Z,16.90
2019-03-30T05:22:51.368Z,16.37
2019-03-30T05:26:59.777Z,14.13
2019-03-30T05:31:08.211Z,16.73
2019-03-30T05:35:16.692Z,17.53
2019-03-30T05:39:25.127Z,19.17
2019-03-30T05:43:33.600Z,18.20
2019-03-30T05:47:42.101Z,21.63
2019-03-30T05:51:50.694Z,15.97
2019-03-30T05:55:59.129Z,15.97
2019-03-30T06:00:09.031Z,13.57
2019-03-30T06:04:17.511Z,15.53
2019-03-30T06:08:26.017Z,18.43
2019-03-30T06:12:34.531Z,16.23
2019-03-30T06:16:43.043Z,18.57
2019-03-30T06:20:51.534Z,15.17
2019-03-30T06:24:59.979Z,15.07
2019-03-30T06:29:08.711Z,16.20
2019-03-30T06:33:17.190Z,13.20
2019-03-30T06:37:25.712Z,19.00
2019-03-30T06:41:34.184Z,16.90
2019-03-30T06:45:42.723Z,15.10
2019-03-30T06:49:51.204Z,16.40
2019-03-30T06:53:59.738Z,14.47
2019-03-30T06:58:08.281Z,19.20
2019-03-30T07:02:17.555Z,16.63
2019-03-30T07:06:26.784Z,19.17
2019-03-30T07:10:38.377Z,18.63
2019-03-30T07:14:49.380Z,17.07
2019-03-30T07:19:01.199Z,15.73
2019-03-30T07:23:12.313Z,16.93
2019-03-30T07:27:20.221Z,21.00
2019-03-30T07:31:28.684Z,18.03
2019-03-30T07:35:37.449Z,19.37
2019-03-30T07:39:46.285Z,23.43
2019-03-30T07:43:55.149Z,17.50
2019-03-30T07:48:03.937Z,16.90
2019-03-30T07:52:12.490Z,18.77
2019-03-30T07:56:20.966Z,21.23
2019-03-30T08:00:31.087Z,22.20
2019-03-30T08:04:39.663Z,19.83
2019-03-30T08:08:48.211Z,17.73
2019-03-30T08:12:56.774Z,17.33
2019-03-30T08:17:05.258Z,19.20
2019-03-30T08:21:14.083Z,19.43
2019-03-30T08:25:22.600Z,18.33
2019-03-30T08:29:31.081Z,23.60
2019-03-30T08:33:39.583Z,19.33
2019-03-30T08:37:48.069Z,20.30
2019-03-30T08:41:56.618Z,17.60
2019-03-30T08:46:05.217Z,17.90
2019-03-30T08:50:14.019Z,18.90
2019-03-30T08:54:22.733Z,17.00
2019-03-30T08:58:31.222Z,17.70
2019-03-30T09:02:39.707Z,15.00
2019-03-30T09:06:48.208Z,16.33
2019-03-30T09:10:56.727Z,16.37
2019-03-30T09:15:07.209Z,14.87
2019-03-30T09:19:15.685Z,14.40
2019-03-30T09:23:24.206Z,16.57
2019-03-30T09:27:32.738Z,20.00
2019-03-30T09:31:41.211Z,20.07
2019-03-30T09:35:49.695Z,19.50
2019-03-30T09:39:58.174Z,18.33
2019-03-30T09:44:06.660Z,17.93
2019-03-30T09:48:15.148Z,19.50
2019-03-30T09:52:23.695Z,15.10
2019-03-30T09:56:32.257Z,23.97
2019-03-30T10:00:41.044Z,14.03
2019-03-30T10:04:49.564Z,18.27
2019-03-30T10:08:58.089Z,17.97
2019-03-30T10:13:07.266Z,19.93
2019-03-30T10:17:15.769Z,27.03
2019-03-30T10:21:24.272Z,14.80
2019-03-30T10:25:32.762Z,15.30
2019-03-30T10:29:41.245Z,15.57
2019-03-30T10:33:49.778Z,17.33
2019-03-30T10:37:58.292Z,19.83
2019-03-30T10:42:06.787Z,12.97
2019-03-30T10:46:15.654Z,14.53
2019-03-30T10:50:24.107Z,21.33
2019-03-30T10:54:32.682Z,13.20
2019-03-30T10:58:41.620Z,14.43
2019-03-30T11:02:50.067Z,11.23
2019-03-30T11:06:58.871Z,14.87
2019-03-30T11:11:07.352Z,16.30
2019-03-30T11:15:15.858Z,16.07
2019-03-30T11:19:24.350Z,15.30
2019-03-30T11:23:33.086Z,14.50
2019-03-30T11:27:41.607Z,11.83
2019-03-30T11:31:50.167Z,12.50
2019-03-30T11:35:58.638Z,9.53
2019-03-30T11:40:07.621Z,10.63
2019-03-30T11:44:16.371Z,10.70
2019-03-30T11:48:24.818Z,11.77
2019-03-30T11:52:33.350Z,8.77
2019-03-30T11:56:41.848Z,12.47
2019-03-30T12:00:50.292Z,10.50
2019-03-30T12:04:58.773Z,12.73
2019-03-30T12:09:08.587Z,11.20
2019-03-30T12:13:17.182Z,12.87
2019-03-30T12:17:25.971Z,12.00
2019-03-30T12:21:34.494Z,11.60
2019-03-30T12:25:42.932Z,12.57
2019-03-30T12:29:51.691Z,11.30
2019-03-30T12:34:00.195Z,10.43
2019-03-30T12:38:08.703Z,10.27
2019-03-30T12:42:17.183Z,14.27
2019-03-30T12:46:25.700Z,12.50
2019-03-30T12:50:34.283Z,11.93
2019-03-30T12:54:42.727Z,14.73
2019-03-30T12:58:51.220Z,10.67
2019-03-30T13:02:59.707Z,17.60
2019-03-30T13:07:08.187Z,11.37
2019-03-30T13:11:16.756Z,10.67
2019-03-30T13:15:25.320Z,12.90
2019-03-30T13:19:33.759Z,12.40
2019-03-30T13:23:42.515Z,12.73
2019-03-30T13:27:53.340Z,10.53
2019-03-30T13:32:01.723Z,11.20
2019-03-30T13:36:11.020Z,16.47
2019-03-30T13:40:19.515Z,13.07
2019-03-30T13:44:28.021Z,11.70
2019-03-30T13:48:36.616Z,17.20
2019-03-30T13:52:45.063Z,17.50
2019-03-30T13:56:53.548Z,12.80
2019-03-30T14:01:02.007Z,11.73
2019-03-30T14:05:30.083Z,10.50
2019-03-30T14:09:57.899Z,14.10
2019-03-30T14:14:06.384Z,10.90
2019-03-30T14:18:14.862Z,10.37
2019-03-30T14:22:23.348Z,10.23
2019-03-30T14:26:32.032Z,8.90
2019-03-30T14:30:40.609Z,10.73
2019-03-30T14:34:49.067Z,10.57
2019-03-30T14:38:57.546Z,13.60
2019-03-30T14:43:05.990Z,11.87
2019-03-30T14:47:14.480Z,16.70
2019-03-30T14:51:22.932Z,13.03
2019-03-30T14:55:31.399Z,15.40
2019-03-30T14:59:39.874Z,12.20
2019-03-30T15:03:48.356Z,13.80
2019-03-30T15:07:56.861Z,15.70
2019-03-30T15:12:05.343Z,11.60
2019-03-30T15:16:13.858Z,12.17
2019-03-30T15:20:22.340Z,15.67
2019-03-30T15:24:30.834Z,12.77
2019-03-30T15:28:51.243Z,15.07
2019-03-30T15:33:03.139Z,14.58
2019-03-30T15:37:09.941Z,13.10
2019-03-30T15:41:18.421Z,13.50
2019-03-30T15:45:26.901Z,11.97
2019-03-30T15:49:35.645Z,13.83
2019-03-30T15:53:45.176Z,12.07
2019-03-30T15:57:53.663Z,14.85
2019-03-30T16:02:02.142Z,11.50
2019-03-30T16:06:10.658Z,16.60
2019-03-30T16:10:19.175Z,13.03
2019-03-30T16:14:27.618Z,19.47
2019-03-30T16:18:36.099Z,10.80
2019-03-30T16:22:45.973Z,15.50
2019-03-30T16:26:54.567Z,14.50
2019-03-30T16:31:03.078Z,11.90
2019-03-30T16:35:11.630Z,11.93
2019-03-30T16:39:20.124Z,13.70
2019-03-30T16:43:28.586Z,12.00
2019-03-30T16:47:37.078Z,16.53
2019-03-30T16:51:45.532Z,13.33
2019-03-30T16:55:54.333Z,17.13
2019-03-30T17:00:02.989Z,19.40
2019-03-30T17:04:11.531Z,14.63
2019-03-30T17:08:20.344Z,16.57
2019-03-30T17:12:28.844Z,20.03
2019-03-30T17:16:37.300Z,17.40
2019-03-30T17:20:46.115Z,22.83
2019-03-30T17:24:54.562Z,17.90
2019-03-30T17:29:03.061Z,47.67
2019-03-30T17:33:11.614Z,37.33
2019-03-30T17:37:20.059Z,21.80
2019-03-30T17:41:28.572Z,22.23
2019-03-30T17:45:37.299Z,24.00
2019-03-30T17:49:45.831Z,25.47
2019-03-30T17:53:54.445Z,25.27
2019-03-30T17:58:12.848Z,21.90
2019-03-30T18:02:13.137Z,18.77
2019-03-30T18:06:21.650Z,20.83
2019-03-30T18:10:30.598Z,20.13
2019-03-30T18:14:39.151Z,21.20
2019-03-30T18:18:47.728Z,25.65
2019-03-30T18:22:56.208Z,19.07
2019-03-30T18:27:04.663Z,22.40
2019-03-30T18:31:13.211Z,21.73
2019-03-30T18:35:21.724Z,24.90
2019-03-30T18:39:30.789Z,26.03
2019-03-30T18:43:39.372Z,26.70
2019-03-30T18:47:48.441Z,28.00
2019-03-30T18:51:57.767Z,26.40
2019-03-30T18:56:06.293Z,25.17
2019-03-30T19:00:17.855Z,29.50
2019-03-30T19:04:26.748Z,26.57
2019-03-30T19:08:35.310Z,24.67
2019-03-30T19:12:43.763Z,25.33
2019-03-30T19:16:52.250Z,23.93
2019-03-30T19:21:00.737Z,22.47
2019-03-30T19:25:09.366Z,23.90
2019-03-30T19:29:17.876Z,27.10
2019-03-30T19:33:26.367Z,27.30
2019-03-30T19:37:34.853Z,28.35
2019-03-30T19:41:43.338Z,27.40
2019-03-30T19:45:51.796Z,24.07
2019-03-30T19:50:00.372Z,23.63
2019-03-30T19:54:08.896Z,28.75
2019-03-30T19:58:17.418Z,26.53
2019-03-30T20:02:25.904Z,27.20
2019-03-30T20:06:34.355Z,26.67
2019-03-30T20:10:42.820Z,28.40
2019-03-30T20:14:51.344Z,29.33
2019-03-30T20:19:11.615Z,35.43
2019-03-30T20:23:10.036Z,40.10
2019-03-30T20:27:18.498Z,35.40
2019-03-30T20:31:27.268Z,40.97
2019-03-30T20:35:35.765Z,34.00
2019-03-30T20:39:44.215Z,34.50
2019-03-30T20:43:52.683Z,34.33
2019-03-30T20:48:01.166Z,35.67
2019-03-30T20:52:09.610Z,35.90
2019-03-30T20:56:18.087Z,41.97
2019-03-30T21:00:26.589Z,35.27
2019-03-30T21:04:35.081Z,34.10
2019-03-30T21:08:43.811Z,38.53
2019-03-30T21:12:52.527Z,35.00
2019-03-30T21:17:00.995Z,36.87
2019-03-30T21:21:09.488Z,38.20
2019-03-30T21:25:17.925Z,40.20
2019-03-30T21:29:26.875Z,39.53
2019-03-30T21:33:35.701Z,40.27
2019-03-30T21:37:44.143Z,39.80
2019-03-30T21:41:52.631Z,38.70
2019-03-30T21:46:01.407Z,40.80
2019-03-30T21:50:10.287Z,44.30
2019-03-30T21:54:18.812Z,46.77
2019-03-30T21:58:27.627Z,44.23
2019-03-30T22:02:36.105Z,41.00
2019-03-30T22:06:44.588Z,45.43
2019-03-30T22:10:53.576Z,44.67
2019-03-30T22:15:02.240Z,51.35
2019-03-30T22:19:10.803Z,52.00
2019-03-30T22:23:19.270Z,42.23
2019-03-30T22:27:27.753Z,38.43
2019-03-30T22:31:36.303Z,48.37
2019-03-30T22:35:44.779Z,43.87
2019-03-30T22:39:53.238Z,48.03
2019-03-30T22:44:01.701Z,48.43
2019-03-30T22:48:10.186Z,41.33
2019-03-30T22:52:20.377Z,43.70
2019-03-30T22:56:29.319Z,45.60
2019-03-30T23:00:42.487Z,47.80
2019-03-30T23:04:50.965Z,47.37
2019-03-30T23:08:59.494Z,47.07
2019-03-30T23:13:08.288Z,49.47
2019-03-30T23:17:16.800Z,54.47
2019-03-30T23:21:25.349Z,53.50
2019-03-30T23:25:33.864Z,61.10
2019-03-30T23:29:42.415Z,50.17
2019-03-30T23:33:50.886Z,47.00
2019-03-30T23:37:59.367Z,48.40
2019-03-30T23:42:07.910Z,56.80
2019-03-30T23:46:16.388Z,57.97
2019-03-30T23:50:25.131Z,59.03
2019-03-30T23:54:33.577Z,63.17
2019-03-30T23:58:42.461Z,50.75
